WZZ6734 LHBP-UKLL
Flight info
| Callsign | WZZ6734 |
|---|---|
| Flight time | 0h 49m |
| Altitude | 31000 |
| Route | WITRI DCT MIZOL DCT IBLIZ DCT KEKED DCT MALBE/K0833F310 P27 VI Q560 KOKUP |
| Aircraft | A320/M-SDE3FGHIRWY/LB1 |
Departure
| Time | 2026-04-22 17:28 |
|---|---|
| Airport | Budapest Liszt Ferenc International Airport (LHBP) |
Arrival
| Time | 2026-04-22 18:17 |
|---|---|
| Airport | Lviv International Airport (UKLL) |
| Time | Latitude | Longitude | Altitude | Speed | Heading |
|---|---|---|---|---|---|
| 2026-04-22 17:01 | 47.43463 | 19.25692 | 456 ft | 0 kts | 312° |
| 2026-04-22 17:20 | 47.43461 | 19.25695 | 457 ft | 3 kts | 312° |
| 2026-04-22 17:21 | 47.43446 | 19.25725 | 456 ft | 4 kts | 288° |
| 2026-04-22 17:21 | 47.43448 | 19.25770 | 455 ft | 4 kts | 222° |
| 2026-04-22 17:22 | 47.43429 | 19.25744 | 456 ft | 0 kts | 222° |
| 2026-04-22 17:24 | 47.43426 | 19.25741 | 457 ft | 2 kts | 222° |
| 2026-04-22 17:25 | 47.43415 | 19.25726 | 457 ft | 3 kts | 222° |
| 2026-04-22 17:25 | 47.43391 | 19.25693 | 457 ft | 8 kts | 222° |
| 2026-04-22 17:25 | 47.43345 | 19.25632 | 457 ft | 10 kts | 222° |
| 2026-04-22 17:25 | 47.43300 | 19.25551 | 457 ft | 11 kts | 256° |
| 2026-04-22 17:26 | 47.43332 | 19.25449 | 457 ft | 12 kts | 312° |
| 2026-04-22 17:26 | 47.43327 | 19.25364 | 457 ft | 10 kts | 223° |
| 2026-04-22 17:26 | 47.43272 | 19.25292 | 457 ft | 12 kts | 222° |
| 2026-04-22 17:26 | 47.43207 | 19.25204 | 457 ft | 14 kts | 223° |
| 2026-04-22 17:27 | 47.43158 | 19.25136 | 457 ft | 15 kts | 223° |
| 2026-04-22 17:27 | 47.43071 | 19.24995 | 457 ft | 11 kts | 270° |
| 2026-04-22 17:27 | 47.43124 | 19.24902 | 457 ft | 17 kts | 312° |
| 2026-04-22 17:27 | 47.43368 | 19.24508 | 452 ft | 85 kts | 312° |
| 2026-04-22 17:28 | 47.43890 | 19.23666 | 455 ft | 134 kts | 312° |
| 2026-04-22 17:28 | 47.44585 | 19.22553 | 780 ft | 148 kts | 312° |
| 2026-04-22 17:28 | 47.45280 | 19.21438 | 1431 ft | 147 kts | 313° |
| 2026-04-22 17:28 | 47.45987 | 19.20290 | 1907 ft | 159 kts | 313° |
| 2026-04-22 17:29 | 47.46783 | 19.19003 | 2188 ft | 181 kts | 313° |
| 2026-04-22 17:29 | 47.47687 | 19.17542 | 2457 ft | 205 kts | 313° |
| 2026-04-22 17:29 | 47.48746 | 19.15999 | 2833 ft | 228 kts | 319° |
| 2026-04-22 17:29 | 47.50016 | 19.14410 | 3360 ft | 247 kts | 321° |
| 2026-04-22 17:30 | 47.51370 | 19.12787 | 4203 ft | 253 kts | 322° |
| 2026-04-22 17:30 | 47.52749 | 19.11145 | 5146 ft | 254 kts | 323° |
| 2026-04-22 17:30 | 47.54130 | 19.09494 | 6070 ft | 257 kts | 323° |
| 2026-04-22 17:30 | 47.55528 | 19.07808 | 6932 ft | 260 kts | 322° |
| 2026-04-22 17:31 | 47.56938 | 19.06094 | 7761 ft | 264 kts | 322° |
| 2026-04-22 17:31 | 47.58423 | 19.04466 | 8559 ft | 267 kts | 334° |
| 2026-04-22 17:31 | 47.60202 | 19.03718 | 9358 ft | 269 kts | 358° |
| 2026-04-22 17:31 | 47.62049 | 19.04181 | 10135 ft | 273 kts | 23° |
| 2026-04-22 17:32 | 47.63579 | 19.05788 | 10836 ft | 279 kts | 47° |
| 2026-04-22 17:32 | 47.64745 | 19.08239 | 11087 ft | 303 kts | 56° |
| 2026-04-22 17:32 | 47.65893 | 19.10992 | 11300 ft | 323 kts | 57° |
| 2026-04-22 17:32 | 47.67065 | 19.13893 | 11857 ft | 331 kts | 58° |
| 2026-04-22 17:33 | 47.67862 | 19.15882 | 12311 ft | 333 kts | 58° |
| 2026-04-22 17:33 | 47.69441 | 19.19807 | 13277 ft | 336 kts | 57° |
| 2026-04-22 17:33 | 47.70670 | 19.22832 | 13999 ft | 338 kts | 57° |
| 2026-04-22 17:33 | 47.71877 | 19.25787 | 14608 ft | 340 kts | 57° |
| 2026-04-22 17:34 | 47.73113 | 19.28799 | 15219 ft | 343 kts | 57° |
| 2026-04-22 17:34 | 47.74360 | 19.31831 | 15824 ft | 345 kts | 57° |
| 2026-04-22 17:34 | 47.75613 | 19.34888 | 16397 ft | 348 kts | 57° |
| 2026-04-22 17:34 | 47.76876 | 19.37974 | 17016 ft | 350 kts | 57° |
| 2026-04-22 17:35 | 47.78148 | 19.41083 | 17618 ft | 352 kts | 57° |
| 2026-04-22 17:35 | 47.79427 | 19.44216 | 18234 ft | 355 kts | 57° |
| 2026-04-22 17:35 | 47.80695 | 19.47329 | 18788 ft | 357 kts | 57° |
| 2026-04-22 17:35 | 47.81986 | 19.50496 | 19320 ft | 359 kts | 57° |
| 2026-04-22 17:36 | 47.83287 | 19.53689 | 19890 ft | 361 kts | 57° |
| 2026-04-22 17:36 | 47.84588 | 19.56896 | 20439 ft | 363 kts | 57° |
| 2026-04-22 17:36 | 47.85896 | 19.60127 | 20994 ft | 364 kts | 58° |
| 2026-04-22 17:36 | 47.86765 | 19.62273 | 21346 ft | 366 kts | 58° |
| 2026-04-22 17:37 | 47.88082 | 19.65525 | 21851 ft | 367 kts | 58° |
| 2026-04-22 17:37 | 47.89383 | 19.68741 | 22694 ft | 360 kts | 58° |
| 2026-04-22 17:37 | 47.90686 | 19.71967 | 23365 ft | 358 kts | 58° |
| 2026-04-22 17:37 | 47.91955 | 19.75111 | 23854 ft | 359 kts | 58° |
| 2026-04-22 17:38 | 47.93246 | 19.78313 | 24281 ft | 361 kts | 58° |
| 2026-04-22 17:38 | 47.94534 | 19.81512 | 24824 ft | 359 kts | 58° |
| 2026-04-22 17:38 | 47.95814 | 19.84698 | 25387 ft | 356 kts | 58° |
| 2026-04-22 17:38 | 47.97079 | 19.87851 | 25931 ft | 354 kts | 58° |
| 2026-04-22 17:39 | 47.98339 | 19.90997 | 26475 ft | 352 kts | 58° |
| 2026-04-22 17:39 | 47.99594 | 19.94133 | 26990 ft | 351 kts | 59° |
| 2026-04-22 17:39 | 48.02077 | 20.00332 | 28211 ft | 344 kts | 59° |
| 2026-04-22 17:40 | 48.03298 | 20.03381 | 28758 ft | 342 kts | 59° |
| 2026-04-22 17:40 | 48.04513 | 20.06420 | 29313 ft | 340 kts | 59° |
| 2026-04-22 17:40 | 48.05717 | 20.09444 | 29852 ft | 338 kts | 59° |
| 2026-04-22 17:40 | 48.06913 | 20.12459 | 30266 ft | 339 kts | 59° |
| 2026-04-22 17:41 | 48.08122 | 20.15504 | 30526 ft | 342 kts | 59° |
| 2026-04-22 17:41 | 48.09345 | 20.18593 | 30738 ft | 347 kts | 59° |
| 2026-04-22 17:41 | 48.10588 | 20.21725 | 30942 ft | 353 kts | 59° |
| 2026-04-22 17:41 | 48.11852 | 20.24913 | 31078 ft | 360 kts | 59° |
| 2026-04-22 17:42 | 48.13144 | 20.28174 | 31111 ft | 370 kts | 59° |
| 2026-04-22 17:42 | 48.15819 | 20.34962 | 31104 ft | 389 kts | 60° |
| 2026-04-22 17:43 | 48.18638 | 20.42118 | 31106 ft | 405 kts | 60° |
| 2026-04-22 17:43 | 48.21520 | 20.49437 | 31110 ft | 409 kts | 60° |
| 2026-04-22 17:44 | 48.24407 | 20.56798 | 31110 ft | 411 kts | 60° |
| 2026-04-22 17:44 | 48.27304 | 20.64228 | 31115 ft | 413 kts | 60° |
| 2026-04-22 17:45 | 48.30208 | 20.71689 | 31097 ft | 413 kts | 60° |
| 2026-04-22 17:45 | 48.33099 | 20.79129 | 31137 ft | 411 kts | 60° |
| 2026-04-22 17:46 | 48.35947 | 20.86477 | 31142 ft | 408 kts | 61° |
| 2026-04-22 17:46 | 48.38763 | 20.93777 | 31094 ft | 398 kts | 61° |
| 2026-04-22 17:47 | 48.41526 | 21.00946 | 31083 ft | 395 kts | 61° |
| 2026-04-22 17:47 | 48.44293 | 21.08148 | 31086 ft | 400 kts | 61° |
| 2026-04-22 17:48 | 48.47068 | 21.15371 | 31083 ft | 401 kts | 61° |
| 2026-04-22 17:48 | 48.49871 | 21.22708 | 31113 ft | 401 kts | 61° |
| 2026-04-22 17:49 | 48.52568 | 21.30029 | 31108 ft | 401 kts | 66° |
| 2026-04-22 17:49 | 48.54754 | 21.37767 | 31113 ft | 401 kts | 67° |
| 2026-04-22 17:50 | 48.56947 | 21.45547 | 31129 ft | 403 kts | 67° |
| 2026-04-22 17:50 | 48.59142 | 21.53326 | 31129 ft | 402 kts | 67° |
| 2026-04-22 17:51 | 48.61326 | 21.61092 | 31119 ft | 401 kts | 67° |
| 2026-04-22 17:51 | 48.63483 | 21.68796 | 31116 ft | 400 kts | 67° |
| 2026-04-22 17:52 | 48.65649 | 21.76557 | 31113 ft | 400 kts | 67° |
| 2026-04-22 17:52 | 48.67805 | 21.84311 | 31114 ft | 400 kts | 67° |
| 2026-04-22 17:53 | 48.69950 | 21.92072 | 31109 ft | 399 kts | 67° |
| 2026-04-22 17:53 | 48.72075 | 21.99790 | 31105 ft | 399 kts | 67° |
| 2026-04-22 17:54 | 48.74215 | 22.07548 | 31092 ft | 399 kts | 67° |
| 2026-04-22 17:54 | 48.76346 | 22.15313 | 31096 ft | 399 kts | 67° |
| 2026-04-22 17:55 | 48.78472 | 22.23095 | 31094 ft | 399 kts | 67° |
| 2026-04-22 17:55 | 48.80594 | 22.30872 | 31095 ft | 399 kts | 67° |
| 2026-04-22 17:56 | 48.82721 | 22.38661 | 31103 ft | 399 kts | 66° |
| 2026-04-22 17:56 | 48.85060 | 22.46261 | 31108 ft | 399 kts | 64° |
| 2026-04-22 17:57 | 48.87539 | 22.53801 | 31102 ft | 399 kts | 63° |
| 2026-04-22 17:57 | 48.89993 | 22.61364 | 31101 ft | 400 kts | 64° |
| 2026-04-22 17:58 | 48.93043 | 22.68418 | 31095 ft | 400 kts | 55° |
| 2026-04-22 17:58 | 48.96327 | 22.75252 | 30780 ft | 397 kts | 55° |
| 2026-04-22 17:58 | 48.97962 | 22.78655 | 29959 ft | 397 kts | 55° |
| 2026-04-22 17:59 | 48.99593 | 22.82055 | 28947 ft | 398 kts | 55° |
| 2026-04-22 17:59 | 49.01237 | 22.85488 | 27750 ft | 403 kts | 55° |
| 2026-04-22 17:59 | 49.02897 | 22.88959 | 26638 ft | 408 kts | 54° |
| 2026-04-22 17:59 | 49.04542 | 22.92404 | 26291 ft | 394 kts | 54° |
| 2026-04-22 18:00 | 49.05598 | 22.94617 | 25949 ft | 386 kts | 54° |
| 2026-04-22 18:00 | 49.07680 | 22.98991 | 25215 ft | 377 kts | 54° |
| 2026-04-22 18:00 | 49.09194 | 23.02176 | 24615 ft | 374 kts | 54° |
| 2026-04-22 18:00 | 49.10740 | 23.05427 | 23985 ft | 373 kts | 54° |
| 2026-04-22 18:01 | 49.12240 | 23.08582 | 23297 ft | 371 kts | 54° |
| 2026-04-22 18:01 | 49.13751 | 23.11771 | 22581 ft | 370 kts | 54° |
| 2026-04-22 18:01 | 49.15257 | 23.14957 | 21899 ft | 368 kts | 53° |
| 2026-04-22 18:01 | 49.16751 | 23.18119 | 21278 ft | 367 kts | 53° |
| 2026-04-22 18:02 | 49.18245 | 23.21282 | 20649 ft | 366 kts | 53° |
| 2026-04-22 18:02 | 49.19731 | 23.24430 | 20074 ft | 364 kts | 53° |
| 2026-04-22 18:02 | 49.21209 | 23.27564 | 19517 ft | 362 kts | 53° |
| 2026-04-22 18:02 | 49.22678 | 23.30686 | 18923 ft | 361 kts | 53° |
| 2026-04-22 18:03 | 49.24143 | 23.33807 | 18356 ft | 359 kts | 53° |
| 2026-04-22 18:03 | 49.25601 | 23.36907 | 17716 ft | 358 kts | 53° |
| 2026-04-22 18:03 | 49.27051 | 23.39991 | 17111 ft | 356 kts | 52° |
| 2026-04-22 18:03 | 49.28492 | 23.43056 | 16512 ft | 353 kts | 53° |
| 2026-04-22 18:04 | 49.29910 | 23.46089 | 16131 ft | 345 kts | 53° |
| 2026-04-22 18:04 | 49.31293 | 23.49054 | 15695 ft | 340 kts | 53° |
| 2026-04-22 18:04 | 49.32644 | 23.51949 | 15188 ft | 337 kts | 52° |
| 2026-04-22 18:04 | 49.34005 | 23.54866 | 14668 ft | 335 kts | 52° |
| 2026-04-22 18:05 | 49.35360 | 23.57768 | 14151 ft | 334 kts | 52° |
| 2026-04-22 18:05 | 49.36707 | 23.60657 | 13596 ft | 332 kts | 52° |
| 2026-04-22 18:05 | 49.38047 | 23.63538 | 13034 ft | 331 kts | 52° |
| 2026-04-22 18:05 | 49.39376 | 23.66404 | 12483 ft | 329 kts | 52° |
| 2026-04-22 18:06 | 49.40698 | 23.69255 | 11953 ft | 327 kts | 52° |
| 2026-04-22 18:06 | 49.42013 | 23.72090 | 11455 ft | 325 kts | 52° |
| 2026-04-22 18:06 | 49.43318 | 23.74907 | 11032 ft | 321 kts | 52° |
| 2026-04-22 18:06 | 49.44583 | 23.77650 | 10877 ft | 309 kts | 52° |
| 2026-04-22 18:07 | 49.45804 | 23.80300 | 10762 ft | 298 kts | 52° |
| 2026-04-22 18:07 | 49.46981 | 23.82851 | 10618 ft | 287 kts | 52° |
| 2026-04-22 18:07 | 49.48120 | 23.85318 | 10460 ft | 280 kts | 52° |
| 2026-04-22 18:07 | 49.49230 | 23.87721 | 10170 ft | 277 kts | 52° |
| 2026-04-22 18:08 | 49.50343 | 23.90131 | 9835 ft | 276 kts | 52° |
| 2026-04-22 18:08 | 49.51451 | 23.92535 | 9487 ft | 275 kts | 52° |
| 2026-04-22 18:08 | 49.52555 | 23.94938 | 9141 ft | 274 kts | 51° |
| 2026-04-22 18:08 | 49.53653 | 23.97330 | 8782 ft | 274 kts | 51° |
| 2026-04-22 18:09 | 49.54753 | 23.99721 | 8432 ft | 273 kts | 51° |
| 2026-04-22 18:09 | 49.55849 | 24.02111 | 8100 ft | 273 kts | 51° |
| 2026-04-22 18:09 | 49.56923 | 24.04465 | 7957 ft | 264 kts | 51° |
| 2026-04-22 18:09 | 49.57938 | 24.06712 | 7742 ft | 250 kts | 51° |
| 2026-04-22 18:10 | 49.58923 | 24.08907 | 7260 ft | 248 kts | 51° |
| 2026-04-22 18:10 | 49.59910 | 24.11110 | 6538 ft | 256 kts | 51° |
| 2026-04-22 18:10 | 49.60941 | 24.13417 | 5806 ft | 263 kts | 51° |
| 2026-04-22 18:10 | 49.61972 | 24.15732 | 5257 ft | 261 kts | 51° |
| 2026-04-22 18:11 | 49.62994 | 24.18030 | 4729 ft | 259 kts | 51° |
| 2026-04-22 18:11 | 49.64006 | 24.20311 | 4188 ft | 257 kts | 51° |
| 2026-04-22 18:11 | 49.65015 | 24.22584 | 3697 ft | 257 kts | 50° |
| 2026-04-22 18:11 | 49.66271 | 24.24389 | 3407 ft | 246 kts | 22° |
| 2026-04-22 18:12 | 49.67888 | 24.24916 | 3265 ft | 229 kts | 351° |
| 2026-04-22 18:12 | 49.69283 | 24.24076 | 3149 ft | 215 kts | 319° |
| 2026-04-22 18:12 | 49.69905 | 24.22897 | 3085 ft | 208 kts | 297° |
| 2026-04-22 18:12 | 49.70287 | 24.20071 | 3025 ft | 203 kts | 278° |
| 2026-04-22 18:13 | 49.70404 | 24.17898 | 3029 ft | 203 kts | 277° |
| 2026-04-22 18:13 | 49.70507 | 24.15725 | 3021 ft | 198 kts | 277° |
| 2026-04-22 18:13 | 49.70593 | 24.13655 | 3029 ft | 189 kts | 277° |
| 2026-04-22 18:13 | 49.70819 | 24.11704 | 3025 ft | 180 kts | 295° |
| 2026-04-22 18:14 | 49.71470 | 24.10094 | 3039 ft | 176 kts | 314° |
| 2026-04-22 18:14 | 49.72348 | 24.08773 | 3029 ft | 176 kts | 316° |
| 2026-04-22 18:14 | 49.73227 | 24.07460 | 2956 ft | 173 kts | 316° |
| 2026-04-22 18:14 | 49.74071 | 24.06197 | 2768 ft | 165 kts | 316° |
| 2026-04-22 18:15 | 49.74871 | 24.05000 | 2554 ft | 154 kts | 316° |
| 2026-04-22 18:15 | 49.75599 | 24.03909 | 2371 ft | 141 kts | 316° |
| 2026-04-22 18:15 | 49.76286 | 24.02878 | 2177 ft | 136 kts | 316° |
| 2026-04-22 18:15 | 49.76964 | 24.01863 | 1991 ft | 135 kts | 316° |
| 2026-04-22 18:16 | 49.77630 | 24.00864 | 1783 ft | 135 kts | 315° |
| 2026-04-22 18:16 | 49.78308 | 23.99841 | 1603 ft | 134 kts | 315° |
| 2026-04-22 18:16 | 49.78976 | 23.98830 | 1409 ft | 134 kts | 314° |
| 2026-04-22 18:16 | 49.79645 | 23.97831 | 1212 ft | 133 kts | 315° |
| 2026-04-22 18:17 | 49.80297 | 23.96849 | 1066 ft | 126 kts | 319° |
| 2026-04-22 18:17 | 49.80809 | 23.96085 | 1064 ft | 77 kts | 316° |
| 2026-04-22 18:17 | 49.81072 | 23.95692 | 1065 ft | 30 kts | 319° |
| 2026-04-22 18:17 | 49.81191 | 23.95546 | 1066 ft | 15 kts | 351° |
| 2026-04-22 18:18 | 49.81265 | 23.95624 | 1067 ft | 7 kts | 45° |
| 2026-04-22 18:18 | 49.81267 | 23.95628 | 1066 ft | 0 kts | 46° |
| 2026-04-22 18:18 | 49.81269 | 23.95631 | 1066 ft | 2 kts | 46° |
| 2026-04-22 18:18 | 49.81283 | 23.95675 | 1066 ft | 7 kts | 76° |
| 2026-04-22 18:19 | 49.81264 | 23.95745 | 1066 ft | 8 kts | 134° |
| 2026-04-22 18:19 | 49.81218 | 23.95815 | 1066 ft | 8 kts | 135° |
| 2026-04-22 18:19 | 49.81237 | 23.95877 | 1066 ft | 8 kts | 45° |
| 2026-04-22 18:19 | 49.81259 | 23.95912 | 1066 ft | 1 kts | 45° |
| 2026-04-22 18:20 | 49.81263 | 23.95918 | 1066 ft | 0 kts | 45° |